Terminal Aerodrome Forecast
Issued by NWS

Home | Current Version | Previous Version | Text Only | Print | Product List | Glossary On
Versions: 1 2 3 4 5 6 7 8 9 10 11 12
000
FTUS46 KEKA 281730
TAFCEC
TAF
KCEC 281730Z 2818/2918 05005KT P6SM BKN015 OVC030
     FM282100 33008KT P6SM SCT015 BKN035
     FM290100 35004KT P6SM SCT050 SCT250=

USA.gov is the U.S. government's official web portal to all federal, state and local government web resources and services.